Time;durP1;ratioP1;P1;durP2;ratioP2;P2;SDS_P1;SDS_P2;PMS_P1;PMS_P2;Temp;Humidity;BMP_temperature;BMP_pressure;BME280_temperature;BME280_humidity;BME280_pressure;Samples;Min_cycle;Max_cycle;Signal;HPM_P1;HPM_P2
2023/09/16 00:00:57;;;;;;;4.15;2.00;;;;;;;18.69;100.00;100731.59;5590826;31;34754;-70
2023/09/16 00:04:01;;;;;;;5.65;2.37;;;;;;;18.71;100.00;100737.59;5591090;31;35507;-70
2023/09/16 00:07:04;;;;;;;4.97;1.95;;;;;;;18.73;100.00;100742.78;5590672;31;34290;-70
2023/09/16 00:10:07;;;;;;;5.45;1.98;;;;;;;18.81;100.00;100739.84;5590639;31;33982;-70
2023/09/16 00:13:10;;;;;;;3.75;1.90;;;;;;;18.76;100.00;100737.78;5590502;31;34170;-70
2023/09/16 00:16:15;;;;;;;7.03;2.20;;;;;;;18.80;100.00;100744.38;5590600;31;34531;-70
2023/09/16 00:19:18;;;;;;;3.47;2.00;;;;;;;18.76;100.00;100735.09;5590965;31;34054;-70
2023/09/16 00:22:21;;;;;;;5.50;2.22;;;;;;;18.76;100.00;100735.09;5590560;31;34748;-70
2023/09/16 00:25:24;;;;;;;5.30;2.00;;;;;;;18.75;100.00;100741.50;5590678;31;34109;-70
2023/09/16 00:28:27;;;;;;;7.35;2.30;;;;;;;18.79;100.00;100741.91;5590495;31;34169;-70
2023/09/16 00:31:30;;;;;;;4.47;2.20;;;;;;;18.76;100.00;100742.34;5590052;31;34172;-70
2023/09/16 00:34:33;;;;;;;6.28;2.28;;;;;;;18.80;100.00;100740.88;5590353;31;34133;-70
2023/09/16 00:37:36;;;;;;;4.57;2.10;;;;;;;18.82;100.00;100749.56;5589954;31;34244;-70
2023/09/16 00:40:39;;;;;;;4.20;1.87;;;;;;;18.82;100.00;100755.75;5590704;31;34817;-70
2023/09/16 00:43:43;;;;;;;5.95;2.17;;;;;;;18.86;100.00;100756.16;5590383;31;34176;-70
2023/09/16 00:46:45;;;;;;;4.72;2.10;;;;;;;18.84;100.00;100759.03;5590728;31;34055;-70
2023/09/16 00:49:50;;;;;;;8.15;2.50;;;;;;;18.84;100.00;100760.91;5590377;31;34968;-70
2023/09/16 00:52:59;;;;;;;9.52;2.42;;;;;;;18.87;100.00;100763.19;5590558;31;34163;-70
2023/09/16 00:56:02;;;;;;;5.97;2.27;;;;;;;18.84;100.00;100756.34;5590152;31;34166;-70
2023/09/16 00:59:05;;;;;;;5.07;2.40;;;;;;;18.88;100.00;100757.56;5590240;31;34756;-70
2023/09/16 01:02:09;;;;;;;6.55;2.20;;;;;;;18.95;100.00;100753.00;5590208;31;34145;-70
2023/09/16 01:05:17;;;;;;;4.62;2.40;;;;;;;18.95;100.00;100757.56;5590156;31;34789;-70
2023/09/16 01:08:20;;;;;;;4.15;2.28;;;;;;;18.87;100.00;100750.56;5590135;31;34138;-70
2023/09/16 01:11:26;;;;;;;5.72;2.20;;;;;;;18.82;100.00;100755.75;5590049;31;34156;-71
2023/09/16 01:14:29;;;;;;;6.18;2.08;;;;;;;18.82;100.00;100747.69;5590009;31;34143;-70
2023/09/16 01:17:42;;;;;;;5.78;2.37;;;;;;;18.74;100.00;100747.09;5590113;31;34152;-70
2023/09/16 01:20:48;;;;;;;5.70;2.30;;;;;;;18.72;100.00;100741.94;5589995;31;34252;-69
2023/09/16 01:24:17;;;;;;;5.22;2.37;;;;;;;18.78;100.00;100733.03;5589978;31;35032;-70
2023/09/16 01:27:21;;;;;;;5.30;2.17;;;;;;;18.63;100.00;100738.66;5590401;31;34024;-70
2023/09/16 01:30:26;;;;;;;3.83;2.40;;;;;;;18.66;100.00;100742.78;5590066;31;34858;-70
2023/09/16 01:33:44;;;;;;;3.78;2.20;;;;;;;18.58;100.00;100738.47;5589944;31;34153;-70
2023/09/16 01:36:52;;;;;;;7.22;2.35;;;;;;;18.55;100.00;100735.37;5590218;31;34671;-70
2023/09/16 01:40:07;;;;;;;3.00;2.05;;;;;;;18.50;100.00;100735.97;5589928;31;34282;-70
2023/09/16 01:43:11;;;;;;;5.28;2.30;;;;;;;18.51;100.00;100743.00;5589121;31;34177;-70
2023/09/16 01:46:13;;;;;;;6.40;2.35;;;;;;;18.51;100.00;100752.91;5589632;31;34025;-70
2023/09/16 01:49:16;;;;;;;5.25;2.28;;;;;;;18.50;100.00;100759.31;5589913;31;34969;-71
2023/09/16 01:52:19;;;;;;;4.62;2.03;;;;;;;18.50;100.00;100756.63;5589280;31;34727;-70
2023/09/16 01:55:23;;;;;;;7.28;1.90;;;;;;;18.52;100.00;100762.63;5589662;31;33974;-70
2023/09/16 01:58:28;;;;;;;4.00;2.10;;;;;;;18.50;100.00;100762.00;5589842;31;34180;-72
2023/09/16 02:01:33;;;;;;;6.10;1.98;;;;;;;18.47;100.00;100765.94;5589710;31;34776;-71
2023/09/16 02:04:38;;;;;;;2.70;1.67;;;;;;;18.39;100.00;100754.59;5589723;31;34791;-71
2023/09/16 02:07:43;;;;;;;3.17;1.80;;;;;;;18.33;100.00;100755.44;5589664;31;34869;-70
2023/09/16 02:10:48;;;;;;;3.75;1.87;;;;;;;18.31;100.00;100757.50;5588968;31;34055;-70
2023/09/16 02:13:51;;;;;;;7.87;4.43;;;;;;;18.37;100.00;100762.03;5589386;31;34247;-70
2023/09/16 02:16:54;;;;;;;4.80;2.22;;;;;;;18.31;100.00;100761.00;5589535;31;35081;-70
2023/09/16 02:19:57;;;;;;;3.25;1.87;;;;;;;18.34;100.00;100765.97;5588685;31;34146;-70
2023/09/16 02:23:02;;;;;;;3.10;2.00;;;;;;;18.25;100.00;100765.34;5588759;31;34746;-69
2023/09/16 02:26:05;;;;;;;4.00;2.10;;;;;;;18.19;100.00;100768.87;5589988;31;34146;-70
2023/09/16 02:29:08;;;;;;;4.90;2.50;;;;;;;18.15;100.00;100762.25;5589426;31;34191;-70
2023/09/16 02:32:11;;;;;;;4.53;2.17;;;;;;;18.19;100.00;100765.38;5589385;31;34335;-70
2023/09/16 02:35:14;;;;;;;3.47;2.22;;;;;;;18.19;100.00;100763.53;5589395;31;34831;-70
2023/09/16 02:38:17;;;;;;;3.33;2.20;;;;;;;18.09;100.00;100763.13;5589416;31;34126;-70
2023/09/16 02:41:20;;;;;;;5.47;2.10;;;;;;;18.03;100.00;100750.50;5589458;31;34229;-70
2023/09/16 02:44:23;;;;;;;5.70;2.20;;;;;;;18.01;100.00;100744.50;5589424;31;34000;-70
2023/09/16 02:47:26;;;;;;;4.32;2.22;;;;;;;17.96;100.00;100751.56;5589371;31;34171;-70
2023/09/16 02:50:33;;;;;;;2.83;2.00;;;;;;;18.02;100.00;100748.84;5589350;31;34805;-70
2023/09/16 02:53:37;;;;;;;3.95;2.35;;;;;;;17.99;100.00;100754.66;5589178;31;34136;-70
2023/09/16 02:56:40;;;;;;;3.33;2.10;;;;;;;17.94;100.00;100748.25;5588511;31;34150;-70
2023/09/16 02:59:43;;;;;;;2.35;2.10;;;;;;;17.98;100.00;100755.66;5589145;31;34134;-71
2023/09/16 03:02:50;;;;;;;3.87;2.10;;;;;;;17.92;100.00;100755.66;5589455;31;34139;-69
2023/09/16 03:05:54;;;;;;;3.30;1.90;;;;;;;17.80;100.00;100753.62;5589096;31;34903;-70
2023/09/16 03:08:56;;;;;;;3.33;1.90;;;;;;;17.76;100.00;100759.59;5589144;31;34236;-70
2023/09/16 03:12:00;;;;;;;4.18;2.10;;;;;;;17.77;100.00;100759.37;5588290;31;34063;-70
2023/09/16 03:15:06;;;;;;;5.18;2.20;;;;;;;17.68;100.00;100762.47;5588908;31;34855;-71
2023/09/16 03:18:09;;;;;;;3.83;1.95;;;;;;;17.67;100.00;100760.84;5589010;31;34243;-71
2023/09/16 03:21:15;;;;;;;3.55;2.08;;;;;;;17.60;100.00;100757.31;5589256;31;34087;-70
2023/09/16 03:24:18;;;;;;;5.22;2.03;;;;;;;17.55;100.00;100767.78;5588915;31;35268;-70
2023/09/16 03:27:21;;;;;;;3.97;1.95;;;;;;;17.52;100.00;100770.88;5589201;31;34675;-70
2023/09/16 03:30:24;;;;;;;4.32;1.73;;;;;;;17.57;100.00;100763.84;5588567;31;34311;-71
2023/09/16 03:33:28;;;;;;;3.45;2.05;;;;;;;17.60;100.00;100762.66;5588820;31;34319;-70
2023/09/16 03:36:31;;;;;;;3.33;1.85;;;;;;;17.50;100.00;100770.25;5589099;31;34344;-70
2023/09/16 03:39:34;;;;;;;2.92;1.90;;;;;;;17.54;100.00;100771.50;5588695;31;34153;-70
2023/09/16 03:42:40;;;;;;;8.82;2.62;;;;;;;17.58;100.00;100768.19;5588445;31;34179;-70
2023/09/16 03:45:43;;;;;;;5.90;2.10;;;;;;;17.46;100.00;100764.47;5588442;31;34829;-70
2023/09/16 03:48:46;;;;;;;4.47;2.00;;;;;;;17.57;100.00;100757.69;5588438;31;34117;-70
2023/09/16 03:51:49;;;;;;;3.15;1.90;;;;;;;17.46;100.00;100763.63;5588637;31;34100;-70
2023/09/16 03:54:52;;;;;;;4.25;2.30;;;;;;;17.43;100.00;100770.22;5588260;31;34787;-70
2023/09/16 03:57:55;;;;;;;5.95;2.03;;;;;;;17.43;100.00;100778.28;5588344;31;34806;-70
2023/09/16 04:00:59;;;;;;;3.75;2.03;;;;;;;17.38;100.00;100772.69;5588619;31;34715;-71
2023/09/16 04:04:02;;;;;;;5.07;2.00;;;;;;;17.39;100.00;100767.12;5588227;31;35230;-70
2023/09/16 04:07:05;;;;;;;4.00;2.10;;;;;;;17.32;100.00;100760.09;5587999;31;34177;-70
2023/09/16 04:10:09;;;;;;;4.32;1.80;;;;;;;17.26;100.00;100759.06;5588163;31;34080;-70
2023/09/16 04:13:13;;;;;;;4.32;1.73;;;;;;;17.20;100.00;100767.91;5587894;31;34142;-70
2023/09/16 04:16:16;;;;;;;3.05;2.00;;;;;;;17.17;100.00;100765.63;5588062;31;34211;-70
2023/09/16 04:19:21;;;;;;;3.30;1.98;;;;;;;17.09;100.00;100770.34;5587912;31;34084;-70
2023/09/16 04:22:25;;;;;;;5.10;2.05;;;;;;;17.08;100.00;100771.38;5587921;31;34159;-70
2023/09/16 04:25:27;;;;;;;4.22;1.75;;;;;;;17.03;100.00;100766.63;5587842;31;34732;-70
2023/09/16 04:28:30;;;;;;;5.10;1.92;;;;;;;16.99;100.00;100769.91;5587767;31;34051;-70
2023/09/16 04:31:34;;;;;;;3.42;2.10;;;;;;;17.03;100.00;100769.28;5587670;31;34846;-70
2023/09/16 04:34:38;;;;;;;5.37;2.15;;;;;;;16.98;100.00;100776.28;5587516;31;34225;-70
2023/09/16 04:37:41;;;;;;;5.25;2.40;;;;;;;16.98;100.00;100777.09;5587567;31;34059;-70
2023/09/16 04:40:46;;;;;;;2.58;1.87;;;;;;;17.02;100.00;100774.84;5587475;31;34306;-70
2023/09/16 04:43:49;;;;;;;5.82;2.15;;;;;;;17.07;100.00;100783.13;5590376;31;34080;-70
2023/09/16 04:46:53;;;;;;;7.28;2.10;;;;;;;17.13;100.00;100775.09;5590535;31;34153;-71
2023/09/16 04:49:57;;;;;;;3.20;1.85;;;;;;;17.17;100.00;100778.22;5590820;31;34198;-71
2023/09/16 04:53:02;;;;;;;2.62;1.87;;;;;;;17.23;100.00;100778.22;5590285;31;34169;-71
2023/09/16 04:56:05;;;;;;;4.22;2.12;;;;;;;17.22;100.00;100773.06;5590610;31;35061;-71
2023/09/16 04:59:08;;;;;;;4.65;1.95;;;;;;;17.10;100.00;100778.16;5590617;31;34168;-71
2023/09/16 05:02:11;;;;;;;2.75;1.80;;;;;;;17.00;100.00;100777.72;5590527;31;34776;-71
2023/09/16 05:05:15;;;;;;;5.75;2.10;;;;;;;16.94;100.00;100781.22;5590264;31;34213;-70
2023/09/16 05:08:18;;;;;;;4.22;1.70;;;;;;;16.86;100.00;100790.22;5590175;31;34782;-69
2023/09/16 05:11:21;;;;;;;3.30;2.00;;;;;;;16.88;100.00;100790.88;5590132;31;34128;-69
2023/09/16 05:14:25;;;;;;;4.97;2.15;;;;;;;16.80;100.00;100796.37;5589992;31;34116;-70
2023/09/16 05:17:28;;;;;;;4.05;1.83;;;;;;;16.91;100.00;100803.88;5590335;31;34205;-69
2023/09/16 05:20:31;;;;;;;6.97;2.12;;;;;;;17.01;100.00;100794.62;5590100;31;34353;-70
2023/09/16 05:23:34;;;;;;;4.93;1.95;;;;;;;17.07;100.00;100792.00;5589260;31;34357;-70
2023/09/16 05:26:37;;;;;;;6.07;2.05;;;;;;;17.19;100.00;100797.59;5590396;31;34085;-71
2023/09/16 05:29:40;;;;;;;10.30;1.95;;;;;;;17.28;100.00;100791.03;5589862;31;35115;-70
2023/09/16 05:32:43;;;;;;;3.92;2.08;;;;;;;17.16;100.00;100798.00;5589458;31;34744;-70
2023/09/16 05:35:47;;;;;;;6.62;2.00;;;;;;;17.25;100.00;100808.34;5589748;31;34148;-71
2023/09/16 05:38:49;;;;;;;5.22;2.00;;;;;;;17.42;100.00;100810.69;5589934;31;34836;-70
2023/09/16 05:41:54;;;;;;;4.35;2.20;;;;;;;17.35;100.00;100816.00;5589905;31;34120;-71
2023/09/16 05:45:00;;;;;;;3.03;1.87;;;;;;;17.50;100.00;100808.62;5590119;31;34169;-71
2023/09/16 05:48:04;;;;;;;8.30;2.20;;;;;;;17.68;100.00;100810.75;5589720;31;34393;-71
2023/09/16 05:51:08;;;;;;;4.35;2.10;;;;;;;17.76;100.00;100806.06;5589702;31;35056;-71
2023/09/16 05:54:14;;;;;;;4.40;2.17;;;;;;;17.89;100.00;100804.41;5587379;31;34166;-70
2023/09/16 05:57:17;;;;;;;6.57;2.17;;;;;;;17.87;100.00;100807.28;5588501;31;34050;-71
2023/09/16 06:00:20;;;;;;;7.12;2.30;;;;;;;17.96;100.00;100807.94;5588509;31;34260;-71
2023/09/16 06:03:24;;;;;;;6.47;2.00;;;;;;;17.82;100.00;100807.06;5588324;31;34226;-71
2023/09/16 06:06:27;;;;;;;3.97;2.10;;;;;;;17.90;100.00;100808.75;5588561;31;34992;-71
2023/09/16 06:09:30;;;;;;;5.70;1.90;;;;;;;17.87;100.00;100803.75;5588459;31;34405;-71
2023/09/16 06:12:33;;;;;;;4.43;2.10;;;;;;;17.57;100.00;100809.47;5589678;31;34331;-71
2023/09/16 06:15:37;;;;;;;4.37;2.00;;;;;;;17.57;100.00;100806.78;5589441;31;34324;-71
2023/09/16 06:18:39;;;;;;;6.60;2.15;;;;;;;17.61;100.00;100804.56;5589544;31;34859;-71
2023/09/16 06:21:43;;;;;;;5.47;2.30;;;;;;;17.52;100.00;100809.28;5589612;31;34196;-71
2023/09/16 06:24:46;;;;;;;6.53;2.33;;;;;;;17.52;100.00;100811.94;5589795;31;35551;-70
2023/09/16 06:27:49;;;;;;;3.83;2.10;;;;;;;17.39;100.00;100807.34;5589412;31;34507;-71
2023/09/16 06:30:53;;;;;;;5.32;2.15;;;;;;;17.47;100.00;100803.69;5589548;31;34976;-70
2023/09/16 06:33:56;;;;;;;4.95;1.92;;;;;;;17.46;100.00;100793.97;5589524;31;34016;-71
2023/09/16 06:37:01;;;;;;;5.40;2.15;;;;;;;17.63;100.00;100792.59;5589451;31;34131;-71
2023/09/16 06:40:04;;;;;;;4.25;1.95;;;;;;;17.87;100.00;100796.53;5589433;31;34183;-71
2023/09/16 06:43:09;;;;;;;6.03;2.22;;;;;;;17.96;100.00;100802.56;5589494;31;34120;-71
2023/09/16 06:46:13;;;;;;;4.47;2.08;;;;;;;17.86;100.00;100794.91;5589129;31;34863;-71
2023/09/16 06:49:19;;;;;;;8.43;1.92;;;;;;;18.01;100.00;100797.41;5589269;31;34077;-70
2023/09/16 06:52:23;;;;;;;7.93;2.28;;;;;;;18.23;100.00;100801.53;5589173;31;35091;-70
2023/09/16 06:55:26;;;;;;;4.25;2.30;;;;;;;18.22;100.00;100802.56;5589026;31;34197;-69
2023/09/16 06:58:29;;;;;;;5.07;2.33;;;;;;;18.17;100.00;100807.72;5589367;31;34378;-70
2023/09/16 07:01:50;;;;;;;5.93;2.20;;;;;;;18.57;100.00;100809.38;5589393;31;35136;-70
2023/09/16 07:04:55;;;;;;;5.47;2.15;;;;;;;18.64;100.00;100812.03;5589005;31;34109;-69
2023/09/16 07:08:00;;;;;;;5.12;1.80;;;;;;;18.33;100.00;100811.84;5589358;31;34872;-69
2023/09/16 07:11:04;;;;;;;4.78;2.40;;;;;;;18.33;100.00;100807.31;5588941;31;34295;-70
2023/09/16 07:14:07;;;;;;;3.35;2.05;;;;;;;18.52;100.00;100811.81;5588890;31;34734;-70
2023/09/16 07:17:10;;;;;;;6.32;2.15;;;;;;;19.00;100.00;100814.22;5588986;31;35126;-71
2023/09/16 07:20:13;;;;;;;7.30;2.05;;;;;;;19.44;100.00;100816.97;5589081;31;34130;-71
2023/09/16 07:23:16;;;;;;;6.40;2.17;;;;;;;19.96;100.00;100817.66;5588754;31;34064;-70
2023/09/16 07:26:19;;;;;;;7.82;2.65;;;;;;;19.88;100.00;100816.06;5588803;31;34075;-71
2023/09/16 07:29:22;;;;;;;7.40;2.40;;;;;;;19.80;100.00;100815.53;5588815;31;32686;-71
2023/09/16 07:32:26;;;;;;;8.10;2.25;;;;;;;20.09;100.00;100816.75;5588631;31;34022;-71
2023/09/16 07:35:29;;;;;;;7.35;1.95;;;;;;;19.92;100.00;100819.16;5588534;31;34134;-70
2023/09/16 07:38:32;;;;;;;5.68;2.47;;;;;;;20.10;100.00;100810.31;5588557;31;34243;-70
2023/09/16 07:41:35;;;;;;;8.98;2.35;;;;;;;20.62;100.00;100820.63;5588128;31;34423;-71
2023/09/16 07:44:41;;;;;;;4.57;2.30;;;;;;;21.32;100.00;100812.19;5588578;31;34138;-70
2023/09/16 07:47:44;;;;;;;7.32;2.03;;;;;;;21.12;100.00;100812.41;5588198;31;34204;-70
2023/09/16 07:50:47;;;;;;;5.80;2.40;;;;;;;21.59;100.00;100808.91;5588337;31;34245;-71
2023/09/16 07:53:50;;;;;;;5.65;2.10;;;;;;;21.54;100.00;100816.06;5587993;31;34108;-71
2023/09/16 07:56:53;;;;;;;3.75;1.87;;;;;;;21.66;95.98;100814.22;5588185;31;34530;-71
2023/09/16 07:59:56;;;;;;;5.95;2.28;;;;;;;21.84;91.81;100808.75;5588255;31;34027;-70
2023/09/16 08:02:59;;;;;;;4.60;2.05;;;;;;;21.69;92.53;100805.66;5587605;31;34828;-71
2023/09/16 08:06:02;;;;;;;5.43;2.20;;;;;;;21.87;91.42;100812.87;5587791;31;34035;-71
2023/09/16 08:09:05;;;;;;;4.68;2.42;;;;;;;22.27;87.08;100803.09;5587538;31;34088;-70
2023/09/16 08:12:09;;;;;;;3.53;2.30;;;;;;;22.20;84.70;100805.09;5587739;31;34110;-70
2023/09/16 08:15:13;;;;;;;3.75;2.30;;;;;;;22.38;88.16;100801.44;5588041;31;34181;-70
2023/09/16 08:18:15;;;;;;;5.65;2.47;;;;;;;22.69;84.05;100794.88;5590379;31;33953;-71
2023/09/16 08:21:18;;;;;;;3.28;2.30;;;;;;;22.92;80.23;100800.25;5590439;31;34301;-70
2023/09/16 08:24:22;;;;;;;3.40;2.47;;;;;;;23.10;79.69;100801.97;5590071;31;34820;-71
2023/09/16 08:27:28;;;;;;;10.40;2.72;;;;;;;23.18;78.09;100796.19;5590290;31;34160;-71
2023/09/16 08:30:31;;;;;;;6.97;2.37;;;;;;;23.33;77.56;100801.91;5590274;31;34770;-70
2023/09/16 08:33:34;;;;;;;3.97;2.28;;;;;;;23.45;75.34;100805.41;5590188;31;34090;-70
2023/09/16 08:36:37;;;;;;;4.22;2.22;;;;;;;23.07;77.47;100806.00;5590157;31;34078;-71
2023/09/16 08:39:40;;;;;;;10.95;2.37;;;;;;;22.86;79.01;100807.44;5590323;31;34118;-69
2023/09/16 08:42:53;;;;;;;3.92;2.37;;;;;;;23.11;76.63;100809.03;5590227;31;34069;-70
2023/09/16 08:46:02;;;;;;;4.32;2.67;;;;;;;23.38;76.14;100799.31;5589903;31;34115;-71
2023/09/16 08:49:09;;;;;;;5.97;2.40;;;;;;;23.43;74.65;100809.41;5589992;31;34202;-71
2023/09/16 08:52:16;;;;;;;5.72;2.28;;;;;;;23.40;73.85;100813.41;5590127;31;34186;-71
2023/09/16 08:55:20;;;;;;;4.00;2.55;;;;;;;23.18;77.14;100810.56;5589877;31;34122;-70
2023/09/16 08:58:24;;;;;;;5.00;2.60;;;;;;;23.34;75.87;100808.97;5589985;31;34709;-70
2023/09/16 09:01:27;;;;;;;7.07;2.60;;;;;;;23.03;78.06;100806.72;5590298;31;34182;-71
2023/09/16 09:04:33;;;;;;;4.47;2.53;;;;;;;23.34;77.21;100814.38;5589859;31;34192;-70
2023/09/16 09:07:37;;;;;;;6.05;2.78;;;;;;;22.90;79.72;100813.19;5590328;31;34238;-69
2023/09/16 09:10:40;;;;;;;2.78;2.47;;;;;;;22.22;84.10;100816.47;5589718;31;35052;-70
2023/09/16 09:13:49;;;;;;;3.58;2.72;;;;;;;22.54;84.10;100803.47;5589808;31;34049;-71
2023/09/16 09:16:55;;;;;;;7.20;2.85;;;;;;;23.07;81.40;100806.00;5588676;31;34195;-70
2023/09/16 09:19:58;;;;;;;4.07;3.12;;;;;;;22.70;83.54;100799.22;5589369;31;34239;-69
2023/09/16 09:23:02;;;;;;;5.25;2.58;;;;;;;22.61;86.60;100803.34;5589239;31;34179;-70
2023/09/16 09:26:05;;;;;;;7.82;2.75;;;;;;;22.56;89.09;100795.12;5588300;31;34098;-69
2023/09/16 09:29:12;;;;;;;3.53;2.53;;;;;;;23.14;83.80;100790.41;5588756;31;34740;-70
2023/09/16 09:32:15;;;;;;;6.03;2.75;;;;;;;23.86;78.08;100790.75;5588038;31;34159;-71
2023/09/16 09:35:22;;;;;;;3.75;2.70;;;;;;;24.18;75.07;100791.84;5589469;31;35061;-71
2023/09/16 09:38:25;;;;;;;6.07;2.58;;;;;;;23.89;76.23;100792.13;5588525;31;34125;-71
2023/09/16 09:41:42;;;;;;;5.28;2.45;;;;;;;23.67;78.89;100792.81;5588985;31;34158;-70
2023/09/16 09:44:45;;;;;;;3.97;2.42;;;;;;;22.82;84.26;100790.03;5588435;31;34025;-71
2023/09/16 09:47:52;;;;;;;4.05;2.67;;;;;;;23.13;86.22;100793.41;5589200;31;34836;-71
2023/09/16 09:50:56;;;;;;;4.25;2.60;;;;;;;23.46;82.02;100787.28;5589307;31;34771;-72
2023/09/16 09:53:59;;;;;;;4.85;2.67;;;;;;;24.06;79.58;100790.25;5589021;31;34298;-70
2023/09/16 09:57:04;;;;;;;11.12;2.40;;;;;;;24.32;73.13;100791.50;5588234;31;34317;-71
2023/09/16 10:00:08;;;;;;;4.37;2.80;;;;;;;23.28;80.25;100794.53;5588503;31;34738;-71
2023/09/16 10:03:14;;;;;;;3.95;2.50;;;;;;;23.66;79.43;100793.09;5589341;31;34098;-69
2023/09/16 10:06:20;;;;;;;6.50;2.50;;;;;;;24.36;73.86;100787.22;5588619;31;34188;-70
2023/09/16 10:09:23;;;;;;;5.78;2.67;;;;;;;24.86;70.86;100793.34;5589309;31;34166;-72
2023/09/16 10:12:26;;;;;;;3.45;2.30;;;;;;;24.58;71.22;100778.06;5589222;31;34736;-70
2023/09/16 10:15:34;;;;;;;8.15;2.75;;;;;;;24.66;69.94;100774.09;5589077;31;34834;-71
2023/09/16 10:18:37;;;;;;;7.35;2.80;;;;;;;25.61;67.62;100778.25;5588346;31;34710;-70
2023/09/16 10:21:41;;;;;;;4.65;2.42;;;;;;;25.15;67.29;100768.75;5589203;31;34075;-71
2023/09/16 10:24:44;;;;;;;4.93;2.47;;;;;;;24.43;71.11;100774.31;5588836;31;34146;-70
2023/09/16 10:27:59;;;;;;;7.05;2.70;;;;;;;24.70;70.25;100775.22;5588915;31;34407;-71
2023/09/16 10:31:04;;;;;;;5.50;2.80;;;;;;;25.19;68.46;100770.72;5588747;31;34007;-71
2023/09/16 10:34:07;;;;;;;4.75;2.72;;;;;;;25.17;69.23;100767.44;5589713;31;34078;-71
2023/09/16 10:37:10;;;;;;;6.07;2.25;;;;;;;25.33;67.19;100761.09;5589020;31;34747;-72
2023/09/16 10:40:15;;;;;;;5.50;2.78;;;;;;;26.39;63.82;100759.31;5588468;31;34801;-74
2023/09/16 10:43:19;;;;;;;3.95;2.50;;;;;;;26.16;62.88;100765.13;5576233;31;34156;-71
2023/09/16 10:46:23;;;;;;;5.62;2.70;;;;;;;25.31;66.78;100757.81;5589513;31;34139;-70
2023/09/16 10:49:27;;;;;;;6.25;2.72;;;;;;;25.59;66.13;100762.19;5589265;31;34790;-71
2023/09/16 10:52:52;;;;;;;3.85;2.50;;;;;;;25.66;66.09;100762.78;5588437;31;35159;-71
2023/09/16 10:56:07;;;;;;;4.32;2.75;;;;;;;25.74;65.18;100761.50;5589207;31;34491;-71
2023/09/16 10:59:13;;;;;;;4.40;2.55;;;;;;;26.25;64.46;100762.75;5589471;31;34080;-70
2023/09/16 11:02:22;;;;;;;6.25;2.97;;;;;;;25.52;67.17;100761.53;5589008;31;34040;-71
2023/09/16 11:05:26;;;;;;;4.97;2.70;;;;;;;25.65;66.67;100755.75;5588390;31;34073;-70
2023/09/16 11:08:29;;;;;;;4.45;2.50;;;;;;;25.64;67.20;100759.53;5588947;31;34069;-71
2023/09/16 11:11:34;;;;;;;3.37;2.40;;;;;;;25.20;68.37;100744.38;5589078;31;34197;-72
2023/09/16 11:14:37;;;;;;;3.25;2.72;;;;;;;25.38;68.22;100744.00;5588182;31;34427;-71
2023/09/16 11:17:40;;;;;;;4.07;2.72;;;;;;;25.40;68.46;100742.69;5588733;31;34285;-72
2023/09/16 11:20:43;;;;;;;4.82;2.50;;;;;;;25.47;67.26;100729.72;5575636;31;34832;-72
2023/09/16 11:23:47;;;;;;;4.57;2.30;;;;;;;25.63;67.76;100730.72;5588952;31;34830;-70
2023/09/16 11:26:51;;;;;;;3.17;2.37;;;;;;;25.42;70.70;100724.22;5588901;31;34177;-70
2023/09/16 11:29:54;;;;;;;3.53;2.50;;;;;;;26.03;68.20;100726.69;5588759;31;34194;-71
2023/09/16 11:32:58;;;;;;;4.90;2.58;;;;;;;26.18;65.45;100718.63;5588656;31;34158;-69
2023/09/16 11:36:13;;;;;;;4.53;2.53;;;;;;;25.47;67.76;100718.84;5588595;31;34289;-70
2023/09/16 11:39:18;;;;;;;4.75;2.60;;;;;;;25.78;66.97;100708.28;5588745;31;35045;-72
2023/09/16 11:42:20;;;;;;;4.72;2.60;;;;;;;25.35;68.75;100711.94;5588884;31;34091;-70
2023/09/16 11:45:24;;;;;;;3.67;2.50;;;;;;;24.97;73.13;100718.34;5588478;31;34112;-70
2023/09/16 11:48:29;;;;;;;3.67;2.12;;;;;;;25.24;70.81;100711.03;5588305;31;34090;-71
2023/09/16 11:51:51;;;;;;;6.18;2.47;;;;;;;25.62;69.67;100714.66;5590142;31;35157;-72
2023/09/16 11:54:54;;;;;;;2.72;2.12;;;;;;;25.48;69.85;100706.09;5591009;31;34881;-71
2023/09/16 11:57:58;;;;;;;7.20;2.58;;;;;;;24.95;73.76;100707.72;5591086;31;34858;-71
2023/09/16 12:01:01;;;;;;;5.15;2.80;;;;;;;25.11;72.65;100711.44;5590756;31;34727;-70
2023/09/16 12:04:05;;;;;;;7.57;2.65;;;;;;;;;;5590061;31;34716;-70
2023/09/16 12:07:09;;;;;;;5.87;2.70;;;;;;;24.53;78.02;100699.31;5590818;31;34239;-70
2023/09/16 12:10:13;;;;;;;4.45;2.53;;;;;;;24.74;75.75;100705.00;5590778;31;34034;-71
2023/09/16 12:13:30;;;;;;;5.12;2.35;;;;;;;24.68;75.43;100694.09;5590533;31;34302;-71
2023/09/16 12:16:36;;;;;;;5.28;2.60;;;;;;;24.66;76.88;100688.09;5590737;31;34168;-72
2023/09/16 12:19:48;;;;;;;7.78;3.40;;;;;;;24.91;73.52;100692.22;5590789;31;34219;-72
2023/09/16 12:22:52;;;;;;;6.97;2.85;;;;;;;24.55;76.90;100682.78;5590631;31;34857;-72
2023/09/16 12:25:55;;;;;;;6.00;2.60;;;;;;;24.81;78.43;100692.88;5590910;31;35422;-72
2023/09/16 12:28:58;;;;;;;7.57;2.75;;;;;;;24.32;79.16;100685.75;5590556;31;34870;-72
2023/09/16 12:32:32;;;;;;;5.50;2.80;;;;;;;24.52;82.13;100686.00;5590528;31;34049;-71
2023/09/16 12:35:38;;;;;;;7.60;2.72;;;;;;;24.51;78.47;100685.19;5590934;31;34283;-71
2023/09/16 12:38:43;;;;;;;4.60;2.60;;;;;;;24.31;81.53;100687.63;5590428;31;34188;-72
2023/09/16 12:41:48;;;;;;;5.10;2.67;;;;;;;24.01;85.23;100679.84;5590412;31;34828;-71
2023/09/16 12:45:07;;;;;;;5.55;2.83;;;;;;;24.06;83.26;100677.22;5590267;31;34925;-71
2023/09/16 12:48:11;;;;;;;6.37;2.65;;;;;;;23.89;85.26;100676.41;5590279;31;34806;-71
2023/09/16 12:51:15;;;;;;;7.55;2.85;;;;;;;24.15;85.46;100675.75;5590594;31;34816;-71
2023/09/16 12:54:18;;;;;;;3.28;2.62;;;;;;;24.22;85.28;100678.28;5590166;31;34048;-71
2023/09/16 12:57:24;;;;;;;5.00;2.80;;;;;;;24.12;85.69;100681.63;5590585;31;34582;-71
2023/09/16 13:00:27;;;;;;;2.53;2.33;;;;;;;23.98;90.85;100674.09;5590382;31;34067;-71
2023/09/16 13:03:37;;;;;;;4.25;2.90;;;;;;;23.91;87.62;100671.59;5589674;31;34764;-72
2023/09/16 13:06:40;;;;;;;;;;;;;;;23.80;95.32;100677.91;5589724;31;34185;-71
2023/09/16 13:09:42;;;;;;;6.70;3.10;;;;;;;23.62;91.72;100678.16;5590276;31;34430;-71
2023/09/16 13:12:50;;;;;;;5.05;2.70;;;;;;;23.56;93.00;100674.56;5590070;31;34138;-71
2023/09/16 13:15:54;;;;;;;3.53;2.47;;;;;;;23.67;94.09;100675.53;5590139;31;34167;-72
2023/09/16 13:18:57;;;;;;;5.10;3.00;;;;;;;23.40;93.40;100668.03;5590237;31;34872;-71
2023/09/16 13:22:02;;;;;;;6.57;2.78;;;;;;;23.35;95.49;100670.63;5589180;31;34159;-72
2023/09/16 13:25:43;;;;;;;4.43;2.35;;;;;;;23.34;98.14;100666.28;5589808;31;35020;-71
2023/09/16 13:29:00;;;;;;;6.75;2.47;;;;;;;23.06;100.00;100663.63;5589581;31;34165;-72
2023/09/16 13:32:04;;;;;;;4.80;3.10;;;;;;;22.91;100.00;100664.16;5589861;31;34154;-72
2023/09/16 13:35:10;;;;;;;4.32;2.60;;;;;;;22.94;100.00;100665.56;5589898;31;34148;-72
2023/09/16 13:38:14;;;;;;;6.93;2.72;;;;;;;23.03;100.00;100663.28;5589720;31;34077;-72
2023/09/16 13:41:17;;;;;;;6.00;2.85;;;;;;;22.72;100.00;100670.81;5589974;31;35096;-71
2023/09/16 13:44:20;;;;;;;6.32;2.80;;;;;;;22.75;100.00;100677.66;5589680;31;35173;-71
2023/09/16 13:47:23;;;;;;;4.87;2.80;;;;;;;22.89;100.00;100671.72;5589497;31;34160;-71
2023/09/16 13:50:26;;;;;;;3.40;2.53;;;;;;;22.89;100.00;100665.47;5589777;31;34889;-71
2023/09/16 13:53:29;;;;;;;7.07;2.97;;;;;;;23.08;100.00;100672.31;5589208;31;34198;-72
2023/09/16 13:56:32;;;;;;;11.48;3.15;;;;;;;23.30;100.00;100670.56;5588677;31;34372;-71
2023/09/16 13:59:35;;;;;;;9.10;3.10;;;;;;;23.32;100.00;100668.44;5589346;31;32650;-71
2023/09/16 14:02:38;;;;;;;6.28;2.83;;;;;;;23.29;100.00;100668.06;5589830;31;34294;-71
2023/09/16 14:05:42;;;;;;;4.65;2.95;;;;;;;23.32;100.00;100670.31;5589052;31;34123;-71
2023/09/16 14:08:45;;;;;;;6.28;3.00;;;;;;;23.40;99.49;100676.16;5589753;31;34294;-72
2023/09/16 14:11:48;;;;;;;8.30;2.80;;;;;;;23.45;100.00;100672.72;5589409;31;34726;-72
2023/09/16 14:14:51;;;;;;;2.92;2.60;;;;;;;23.63;97.88;100667.06;5587470;31;32958;-71